createdAt,value
2018-12-22T00:00:22.969Z,13.90
2018-12-22T00:01:26.253Z,13.90
2018-12-22T00:02:29.484Z,13.90
2018-12-22T00:03:32.931Z,13.90
2018-12-22T00:04:36.198Z,13.90
2018-12-22T00:05:39.456Z,13.90
2018-12-22T00:06:42.739Z,14.00
2018-12-22T00:07:46.008Z,14.00
2018-12-22T00:08:49.260Z,14.00
2018-12-22T00:09:52.529Z,14.00
2018-12-22T00:10:55.820Z,14.00
2018-12-22T00:11:59.056Z,14.00
2018-12-22T00:13:02.335Z,14.00
2018-12-22T00:14:05.601Z,13.90
2018-12-22T00:15:08.846Z,13.90
2018-12-22T00:16:12.086Z,13.90
2018-12-22T00:17:15.332Z,13.90
2018-12-22T00:18:18.564Z,13.90
2018-12-22T00:19:21.829Z,13.70
2018-12-22T00:20:25.063Z,13.90
2018-12-22T00:21:28.337Z,13.90
2018-12-22T00:22:31.624Z,13.80
2018-12-22T00:23:34.842Z,13.80
2018-12-22T00:24:38.091Z,13.80
2018-12-22T00:25:41.365Z,13.80
2018-12-22T00:26:45.388Z,13.80
2018-12-22T00:27:48.622Z,13.80
2018-12-22T00:28:51.884Z,13.80
2018-12-22T00:29:55.120Z,13.80
2018-12-22T00:30:58.361Z,13.80
2018-12-22T00:32:01.723Z,13.80
2018-12-22T00:33:05.071Z,13.80
2018-12-22T00:34:08.366Z,13.80
2018-12-22T00:35:11.650Z,13.80
2018-12-22T00:36:15.019Z,13.80
2018-12-22T00:37:18.320Z,13.80
2018-12-22T00:38:21.618Z,13.80
2018-12-22T00:39:24.860Z,13.80
2018-12-22T00:40:28.092Z,13.80
2018-12-22T00:41:31.350Z,13.80
2018-12-22T00:42:34.573Z,13.80
2018-12-22T00:43:37.836Z,13.80
2018-12-22T00:44:41.075Z,13.80
2018-12-22T00:45:44.391Z,13.80
2018-12-22T00:46:47.672Z,13.80
2018-12-22T00:47:50.950Z,13.80
2018-12-22T00:48:54.207Z,13.80
2018-12-22T00:49:57.526Z,13.80
2018-12-22T00:51:00.771Z,13.80
2018-12-22T00:52:04.145Z,13.80
2018-12-22T00:53:07.526Z,13.70
2018-12-22T00:54:11.005Z,13.70
2018-12-22T00:55:14.263Z,13.70
2018-12-22T00:56:17.535Z,13.70
2018-12-22T00:57:20.778Z,13.70
2018-12-22T00:58:30.669Z,13.70
2018-12-22T00:59:29.254Z,13.70
2018-12-22T01:00:32.535Z,13.70
2018-12-22T01:01:35.800Z,13.60
2018-12-22T01:02:39.039Z,13.60
2018-12-22T01:03:42.411Z,13.60
2018-12-22T01:04:45.652Z,13.60
2018-12-22T01:05:48.969Z,13.60
2018-12-22T01:06:52.821Z,13.50
2018-12-22T01:07:56.181Z,13.50
2018-12-22T01:08:59.484Z,13.50
2018-12-22T01:10:03.016Z,13.50
2018-12-22T01:11:06.252Z,13.40
2018-12-22T01:12:10.061Z,13.40
2018-12-22T01:13:13.430Z,13.40
2018-12-22T01:14:16.712Z,13.40
2018-12-22T01:15:19.946Z,13.40
2018-12-22T01:16:23.210Z,13.40
2018-12-22T01:17:26.538Z,13.40
2018-12-22T01:18:29.910Z,13.30
2018-12-22T01:19:33.167Z,13.30
2018-12-22T01:20:36.412Z,13.30
2018-12-22T01:21:39.647Z,13.30
2018-12-22T01:22:42.878Z,13.30
2018-12-22T01:23:46.159Z,13.30
2018-12-22T01:24:49.385Z,13.30
2018-12-22T01:25:52.655Z,13.30
2018-12-22T01:26:55.926Z,13.30
2018-12-22T01:27:59.483Z,13.30
2018-12-22T01:29:02.767Z,13.30
2018-12-22T01:30:08.123Z,13.30
2018-12-22T01:31:11.353Z,13.30
2018-12-22T01:32:14.727Z,13.30
2018-12-22T01:33:17.980Z,13.30
2018-12-22T01:34:21.244Z,13.30
2018-12-22T01:35:24.497Z,13.30
2018-12-22T01:36:27.738Z,13.30
2018-12-22T01:37:30.978Z,13.30
2018-12-22T01:38:34.247Z,13.20
2018-12-22T01:39:37.508Z,13.20
2018-12-22T01:40:40.755Z,13.20
2018-12-22T01:41:43.982Z,13.20
2018-12-22T01:42:47.221Z,13.20
2018-12-22T01:43:50.447Z,13.20
2018-12-22T01:44:53.919Z,13.20
2018-12-22T01:45:57.240Z,13.20
2018-12-22T01:47:00.491Z,13.20
2018-12-22T01:48:03.745Z,13.20
2018-12-22T01:49:07.045Z,13.20
2018-12-22T01:50:10.341Z,13.20
2018-12-22T01:51:13.595Z,13.10
2018-12-22T01:52:16.838Z,13.10
2018-12-22T01:53:20.088Z,13.10
2018-12-22T01:54:23.405Z,13.10
2018-12-22T01:55:26.678Z,13.20
2018-12-22T01:56:29.937Z,13.10
2018-12-22T01:57:33.185Z,13.10
2018-12-22T01:58:36.437Z,13.10
2018-12-22T01:59:39.683Z,13.10
2018-12-22T02:00:42.986Z,13.10
2018-12-22T02:01:46.264Z,13.10
2018-12-22T02:02:49.495Z,13.10
2018-12-22T02:03:52.777Z,13.10
2018-12-22T02:04:56.005Z,13.10
2018-12-22T02:05:59.540Z,13.10
2018-12-22T02:07:02.873Z,13.10
2018-12-22T02:08:06.103Z,13.10
2018-12-22T02:09:09.348Z,13.10
2018-12-22T02:10:12.584Z,13.10
2018-12-22T02:11:15.992Z,13.10
2018-12-22T02:12:19.209Z,13.10
2018-12-22T02:13:22.462Z,13.10
2018-12-22T02:14:25.807Z,13.10
2018-12-22T02:15:29.035Z,13.20
2018-12-22T02:16:32.296Z,13.20
2018-12-22T02:17:35.652Z,13.20
2018-12-22T02:18:38.908Z,13.20
2018-12-22T02:19:42.203Z,13.20
2018-12-22T02:20:45.448Z,13.20
2018-12-22T02:21:48.699Z,13.20
2018-12-22T02:22:51.950Z,13.20
2018-12-22T02:23:55.208Z,13.20
2018-12-22T02:24:58.468Z,13.30
2018-12-22T02:26:01.731Z,13.30
2018-12-22T02:27:05.071Z,13.30
2018-12-22T02:28:08.359Z,13.30
2018-12-22T02:29:11.605Z,13.30
2018-12-22T02:30:14.865Z,13.30
2018-12-22T02:31:18.270Z,13.30
2018-12-22T02:32:21.545Z,13.30
2018-12-22T02:33:24.799Z,13.30
2018-12-22T02:34:28.077Z,13.30
2018-12-22T02:35:31.323Z,13.30
2018-12-22T02:36:34.559Z,13.30
2018-12-22T02:37:37.843Z,13.30
2018-12-22T02:38:41.097Z,13.30
2018-12-22T02:39:44.386Z,13.30
2018-12-22T02:40:47.654Z,13.30
2018-12-22T02:41:50.927Z,13.30
2018-12-22T02:42:54.226Z,13.30
2018-12-22T02:43:57.563Z,13.30
2018-12-22T02:45:00.786Z,13.20
2018-12-22T02:46:04.012Z,13.20
2018-12-22T02:47:07.290Z,13.20
2018-12-22T02:48:10.569Z,13.20
2018-12-22T02:49:13.838Z,13.10
2018-12-22T02:50:17.066Z,13.10
2018-12-22T02:51:20.320Z,13.10
2018-12-22T02:52:23.567Z,13.10
2018-12-22T02:53:26.847Z,13.10
2018-12-22T02:54:30.079Z,13.10
2018-12-22T02:55:39.280Z,13.00
2018-12-22T02:56:48.413Z,13.00
2018-12-22T02:57:51.660Z,13.00
2018-12-22T02:58:54.938Z,13.00
2018-12-22T02:59:58.180Z,13.00
2018-12-22T03:01:01.480Z,13.00
2018-12-22T03:02:04.735Z,12.90
2018-12-22T03:03:07.999Z,12.90
2018-12-22T03:04:11.267Z,12.90
2018-12-22T03:05:14.587Z,12.90
2018-12-22T03:06:17.954Z,12.90
2018-12-22T03:07:21.182Z,12.90
2018-12-22T03:08:24.430Z,12.90
2018-12-22T03:09:27.696Z,12.90
2018-12-22T03:10:31.017Z,12.90
2018-12-22T03:11:34.249Z,12.90
2018-12-22T03:12:37.762Z,12.90
2018-12-22T03:13:41.045Z,12.90
2018-12-22T03:14:44.327Z,12.90
2018-12-22T03:15:47.602Z,12.90
2018-12-22T03:16:50.833Z,12.90
2018-12-22T03:17:54.072Z,12.90
2018-12-22T03:18:57.401Z,12.90
2018-12-22T03:20:00.614Z,12.90
2018-12-22T03:21:03.879Z,12.80
2018-12-22T03:22:07.131Z,12.80
2018-12-22T03:23:10.365Z,12.80
2018-12-22T03:24:13.672Z,12.80
2018-12-22T03:25:17.245Z,12.90
2018-12-22T03:26:20.489Z,12.80
2018-12-22T03:27:23.723Z,12.80
2018-12-22T03:28:26.971Z,12.80
2018-12-22T03:29:30.246Z,12.80
2018-12-22T03:30:33.501Z,12.80
2018-12-22T03:31:36.822Z,12.80
2018-12-22T03:32:40.072Z,12.80
2018-12-22T03:33:43.366Z,12.80
2018-12-22T03:34:46.617Z,12.70
2018-12-22T03:35:49.995Z,12.70
2018-12-22T03:36:53.259Z,12.70
2018-12-22T03:37:56.514Z,12.70
2018-12-22T03:38:59.758Z,12.70
2018-12-22T03:40:03.810Z,12.70
2018-12-22T03:41:07.148Z,12.70
2018-12-22T03:42:10.398Z,12.70
2018-12-22T03:43:13.669Z,12.70
2018-12-22T03:44:16.891Z,12.70
2018-12-22T03:45:20.127Z,12.70
2018-12-22T03:46:23.478Z,12.70
2018-12-22T03:47:26.934Z,12.70
2018-12-22T03:48:30.177Z,12.70
2018-12-22T03:49:33.413Z,12.70
2018-12-22T03:50:36.990Z,12.70
2018-12-22T03:51:40.272Z,12.70
2018-12-22T03:52:43.645Z,12.70
2018-12-22T03:53:46.938Z,12.70
2018-12-22T03:54:50.188Z,12.90
2018-12-22T03:55:53.417Z,12.70
2018-12-22T03:56:56.697Z,12.70
2018-12-22T03:57:59.925Z,12.70
2018-12-22T03:59:03.174Z,12.70
2018-12-22T04:00:06.748Z,12.70
2018-12-22T04:01:10.011Z,12.70
2018-12-22T04:02:13.286Z,12.70
2018-12-22T04:03:16.608Z,12.80
2018-12-22T04:04:19.844Z,12.80
2018-12-22T04:05:23.081Z,12.80
2018-12-22T04:06:26.319Z,12.80
2018-12-22T04:07:29.658Z,12.80
2018-12-22T04:08:32.975Z,12.80
2018-12-22T04:09:36.239Z,12.80
2018-12-22T04:10:39.502Z,12.80
2018-12-22T04:11:42.729Z,12.80
2018-12-22T04:12:45.978Z,12.80
2018-12-22T04:13:49.210Z,12.80
2018-12-22T04:14:52.447Z,12.80
2018-12-22T04:15:55.711Z,12.90
2018-12-22T04:16:58.946Z,12.90
2018-12-22T04:18:02.199Z,12.90
2018-12-22T04:19:05.422Z,12.90
2018-12-22T04:20:08.661Z,12.90
2018-12-22T04:21:11.914Z,12.90
2018-12-22T04:22:15.199Z,13.00
2018-12-22T04:23:18.440Z,13.00
2018-12-22T04:24:21.772Z,13.00
2018-12-22T04:25:25.023Z,13.00
2018-12-22T04:26:28.282Z,13.00
2018-12-22T04:27:31.500Z,13.00
2018-12-22T04:28:34.824Z,13.00
2018-12-22T04:29:38.058Z,13.10
2018-12-22T04:30:42.260Z,13.10
2018-12-22T04:31:45.515Z,13.10
2018-12-22T04:32:48.757Z,13.10
2018-12-22T04:33:52.182Z,13.10
2018-12-22T04:34:55.446Z,13.10
2018-12-22T04:35:58.669Z,13.10
2018-12-22T04:37:01.926Z,13.20
2018-12-22T04:38:05.162Z,13.20
2018-12-22T04:39:08.392Z,13.20
2018-12-22T04:40:11.762Z,13.20
2018-12-22T04:41:14.998Z,13.20
2018-12-22T04:42:18.224Z,13.20
2018-12-22T04:43:21.449Z,13.20
2018-12-22T04:44:24.757Z,13.30
2018-12-22T04:45:28.090Z,13.30
2018-12-22T04:46:31.384Z,13.30
2018-12-22T04:47:34.617Z,13.30
2018-12-22T04:48:37.854Z,13.30
2018-12-22T04:49:41.144Z,13.30
2018-12-22T04:50:44.365Z,13.40
2018-12-22T04:51:47.670Z,13.40
2018-12-22T04:52:50.909Z,13.40
2018-12-22T04:53:54.150Z,13.40
2018-12-22T04:54:57.519Z,13.40
2018-12-22T04:56:00.777Z,13.40
2018-12-22T04:57:04.004Z,13.50
2018-12-22T04:58:07.249Z,13.50
2018-12-22T04:59:10.468Z,13.50
2018-12-22T05:00:14.027Z,13.50
2018-12-22T05:01:17.268Z,13.50
2018-12-22T05:02:20.486Z,13.60
2018-12-22T05:03:23.731Z,13.60
2018-12-22T05:04:26.972Z,13.60
2018-12-22T05:05:30.208Z,13.60
2018-12-22T05:06:33.466Z,13.60
2018-12-22T05:07:36.704Z,13.60
2018-12-22T05:08:39.968Z,13.60
2018-12-22T05:09:43.205Z,13.70
2018-12-22T05:10:46.459Z,13.70
2018-12-22T05:11:49.716Z,13.70
2018-12-22T05:12:52.958Z,13.70
2018-12-22T05:13:56.204Z,13.70
2018-12-22T05:14:59.451Z,13.70
2018-12-22T05:16:02.710Z,13.80
2018-12-22T05:17:05.956Z,13.80
2018-12-22T05:18:09.274Z,13.80
2018-12-22T05:19:12.512Z,13.80
2018-12-22T05:20:15.749Z,13.80
2018-12-22T05:21:18.992Z,13.80
2018-12-22T05:22:22.770Z,13.80
2018-12-22T05:23:25.993Z,13.80
2018-12-22T05:24:29.240Z,13.80
2018-12-22T05:25:32.474Z,13.90
2018-12-22T05:26:35.756Z,13.90
2018-12-22T05:27:39.028Z,13.90
2018-12-22T05:28:42.330Z,13.90
2018-12-22T05:29:51.709Z,13.90
2018-12-22T05:30:50.853Z,13.90
2018-12-22T05:31:54.123Z,13.90
2018-12-22T05:32:57.359Z,13.90
2018-12-22T05:34:00.601Z,14.00
2018-12-22T05:35:04.079Z,14.00
2018-12-22T05:36:07.360Z,14.00
2018-12-22T05:37:10.602Z,14.00
2018-12-22T05:38:13.852Z,14.00
2018-12-22T05:39:17.158Z,14.00
2018-12-22T05:40:20.375Z,14.00
2018-12-22T05:41:23.618Z,14.00
2018-12-22T05:42:26.868Z,14.00
2018-12-22T05:43:30.112Z,14.00
2018-12-22T05:44:33.410Z,14.00
2018-12-22T05:45:36.708Z,14.00
2018-12-22T05:46:39.937Z,14.00
2018-12-22T05:47:43.170Z,14.00
2018-12-22T05:48:46.550Z,14.00
2018-12-22T05:49:49.812Z,14.00
2018-12-22T05:50:53.063Z,14.00
2018-12-22T05:51:56.285Z,14.00
2018-12-22T05:52:59.532Z,14.00
2018-12-22T05:54:02.798Z,14.10
2018-12-22T05:55:06.125Z,14.10
2018-12-22T05:56:09.407Z,14.10
2018-12-22T05:57:12.654Z,14.10
2018-12-22T05:58:15.880Z,14.10
2018-12-22T05:59:19.148Z,14.10
2018-12-22T06:00:22.418Z,14.10
2018-12-22T06:01:25.663Z,14.10
2018-12-22T06:02:28.989Z,14.10
2018-12-22T06:03:32.259Z,14.10
2018-12-22T06:04:35.618Z,14.20
2018-12-22T06:05:38.913Z,14.20
2018-12-22T06:06:42.154Z,14.20
2018-12-22T06:07:45.501Z,14.10
2018-12-22T06:08:48.732Z,14.20
2018-12-22T06:09:51.974Z,14.10
2018-12-22T06:10:55.301Z,14.10
2018-12-22T06:11:58.548Z,14.10
2018-12-22T06:13:01.866Z,14.10
2018-12-22T06:14:05.199Z,14.10
2018-12-22T06:15:08.490Z,14.10
2018-12-22T06:16:11.862Z,14.10
2018-12-22T06:17:15.106Z,14.10
2018-12-22T06:18:18.362Z,14.10
2018-12-22T06:19:21.650Z,14.10
2018-12-22T06:20:24.898Z,14.00
2018-12-22T06:21:28.134Z,14.00
2018-12-22T06:22:31.426Z,14.00
2018-12-22T06:23:34.660Z,14.00
2018-12-22T06:24:37.993Z,14.00
2018-12-22T06:25:41.234Z,14.00
2018-12-22T06:26:44.452Z,13.90
2018-12-22T06:27:47.730Z,13.90
2018-12-22T06:28:50.984Z,13.90
2018-12-22T06:29:54.222Z,14.00
2018-12-22T06:30:57.587Z,13.90
2018-12-22T06:32:00.902Z,13.90
2018-12-22T06:33:04.163Z,13.90
2018-12-22T06:34:07.441Z,13.90
2018-12-22T06:35:10.769Z,13.90
2018-12-22T06:36:14.105Z,14.00
2018-12-22T06:37:17.330Z,14.00
2018-12-22T06:38:20.614Z,14.00
2018-12-22T06:39:24.068Z,14.00
2018-12-22T06:40:27.290Z,14.00
2018-12-22T06:41:30.516Z,14.00
2018-12-22T06:42:33.774Z,14.00
2018-12-22T06:43:37.025Z,14.00
2018-12-22T06:44:40.406Z,14.00
2018-12-22T06:45:43.673Z,14.00
2018-12-22T06:46:47.566Z,14.00
2018-12-22T06:47:50.804Z,14.00
2018-12-22T06:48:54.038Z,14.10
2018-12-22T06:49:57.277Z,14.10
2018-12-22T06:51:00.616Z,14.10
2018-12-22T06:52:03.848Z,14.10
2018-12-22T06:53:07.166Z,14.10
2018-12-22T06:54:10.436Z,14.10
2018-12-22T06:55:13.697Z,14.10
2018-12-22T06:56:16.930Z,14.20
2018-12-22T06:57:20.214Z,14.20
2018-12-22T06:58:23.460Z,14.20
2018-12-22T06:59:26.722Z,14.20
2018-12-22T07:00:30.050Z,14.20
2018-12-22T07:01:33.307Z,14.20
2018-12-22T07:02:36.557Z,14.20
2018-12-22T07:03:39.822Z,14.20
2018-12-22T07:04:43.073Z,14.20
2018-12-22T07:05:46.313Z,14.20
2018-12-22T07:06:49.580Z,14.20
2018-12-22T07:07:52.843Z,14.20
2018-12-22T07:08:56.070Z,14.30
2018-12-22T07:09:59.341Z,14.30
2018-12-22T07:11:02.561Z,14.30
2018-12-22T07:12:06.037Z,14.30
2018-12-22T07:13:09.332Z,14.30
2018-12-22T07:14:12.560Z,14.30
2018-12-22T07:15:15.963Z,14.30
2018-12-22T07:16:19.217Z,14.30
2018-12-22T07:17:22.492Z,14.30
2018-12-22T07:18:25.748Z,14.30
2018-12-22T07:19:28.987Z,14.40
2018-12-22T07:20:32.267Z,14.40
2018-12-22T07:21:35.526Z,14.40
2018-12-22T07:22:38.813Z,14.40
2018-12-22T07:23:42.054Z,14.40
2018-12-22T07:24:45.280Z,14.40
2018-12-22T07:25:48.542Z,14.40
2018-12-22T07:26:51.802Z,14.40
2018-12-22T07:27:55.045Z,14.40
2018-12-22T07:28:58.313Z,14.40
2018-12-22T07:30:02.230Z,14.40
2018-12-22T07:31:05.633Z,14.40
2018-12-22T07:32:08.862Z,14.40
2018-12-22T07:33:12.089Z,14.40
2018-12-22T07:34:15.331Z,14.40
2018-12-22T07:35:18.644Z,14.40
2018-12-22T07:36:21.893Z,14.40
2018-12-22T07:37:25.175Z,14.40
2018-12-22T07:38:28.594Z,14.40
2018-12-22T07:39:31.833Z,14.40
2018-12-22T07:40:35.124Z,14.40
2018-12-22T07:41:38.393Z,14.40
2018-12-22T07:42:41.645Z,14.40
2018-12-22T07:43:44.908Z,14.40
2018-12-22T07:44:48.140Z,14.40
2018-12-22T07:45:51.513Z,14.40
2018-12-22T07:46:54.864Z,14.40
2018-12-22T07:47:58.120Z,14.40
2018-12-22T07:49:01.397Z,14.40
2018-12-22T07:50:05.462Z,14.40
2018-12-22T07:51:08.711Z,14.40
2018-12-22T07:52:11.949Z,14.40
2018-12-22T07:53:15.224Z,14.40
2018-12-22T07:54:18.438Z,14.40
2018-12-22T07:55:21.708Z,14.40
2018-12-22T07:56:24.963Z,14.40
2018-12-22T07:57:28.223Z,14.40
2018-12-22T07:58:31.483Z,14.40
2018-12-22T07:59:34.722Z,14.40
2018-12-22T08:00:37.982Z,14.40
2018-12-22T08:01:41.245Z,14.40
2018-12-22T08:02:44.527Z,14.40
2018-12-22T08:03:47.807Z,14.40
2018-12-22T08:04:51.051Z,14.40
2018-12-22T08:05:54.298Z,14.40
2018-12-22T08:06:57.618Z,14.40
2018-12-22T08:08:00.863Z,14.40
2018-12-22T08:09:06.133Z,14.40
2018-12-22T08:10:09.374Z,14.40
2018-12-22T08:11:12.613Z,14.40
2018-12-22T08:12:15.997Z,14.40
2018-12-22T08:13:19.310Z,14.40
2018-12-22T08:14:22.555Z,14.40
2018-12-22T08:15:25.923Z,14.40
2018-12-22T08:16:29.175Z,14.40
2018-12-22T08:17:32.424Z,14.40
2018-12-22T08:18:35.675Z,14.40
2018-12-22T08:19:38.900Z,14.40
2018-12-22T08:20:42.158Z,14.40
2018-12-22T08:21:45.403Z,14.40
2018-12-22T08:22:48.920Z,14.40
2018-12-22T08:23:52.108Z,14.50
2018-12-22T08:24:55.355Z,14.50
2018-12-22T08:25:58.628Z,14.50
2018-12-22T08:27:02.268Z,14.50
2018-12-22T08:28:05.651Z,14.50
2018-12-22T08:29:08.934Z,14.50
2018-12-22T08:30:12.189Z,14.50
2018-12-22T08:31:15.525Z,14.50
2018-12-22T08:32:18.782Z,14.50
2018-12-22T08:33:22.047Z,14.50
2018-12-22T08:34:25.395Z,14.50
2018-12-22T08:35:28.627Z,14.50
2018-12-22T08:36:31.875Z,14.50
2018-12-22T08:37:35.550Z,14.50
2018-12-22T08:38:38.904Z,14.50
2018-12-22T08:39:42.296Z,14.50
2018-12-22T08:40:45.544Z,14.50
2018-12-22T08:41:48.780Z,14.50
2018-12-22T08:42:52.051Z,14.50
2018-12-22T08:43:55.313Z,14.50
2018-12-22T08:44:58.525Z,14.50
2018-12-22T08:46:01.799Z,14.50
2018-12-22T08:47:05.129Z,14.50
2018-12-22T08:48:09.059Z,14.50
2018-12-22T08:49:12.325Z,14.50
2018-12-22T08:50:15.576Z,14.50
2018-12-22T08:51:18.953Z,14.50
2018-12-22T08:52:22.329Z,14.50
2018-12-22T08:53:25.583Z,14.50
2018-12-22T08:54:28.846Z,14.50
2018-12-22T08:55:32.110Z,14.50
2018-12-22T08:56:35.383Z,14.50
2018-12-22T08:57:38.710Z,14.50
2018-12-22T08:58:41.960Z,14.50
2018-12-22T08:59:45.196Z,14.50
2018-12-22T09:00:52.360Z,14.50
2018-12-22T09:01:53.730Z,14.50
2018-12-22T09:02:56.968Z,14.50
2018-12-22T09:04:00.246Z,14.50
2018-12-22T09:05:04.872Z,14.50
2018-12-22T09:06:08.114Z,14.50
2018-12-22T09:07:11.421Z,14.40
2018-12-22T09:08:14.654Z,14.40
2018-12-22T09:09:17.894Z,14.40
2018-12-22T09:10:21.131Z,14.40
2018-12-22T09:11:24.432Z,14.40
2018-12-22T09:12:27.736Z,14.40
2018-12-22T09:13:30.986Z,14.50
2018-12-22T09:14:34.566Z,14.50
2018-12-22T09:15:37.882Z,14.50
2018-12-22T09:16:41.609Z,14.50
2018-12-22T09:17:45.038Z,14.50
2018-12-22T09:18:48.267Z,14.50
2018-12-22T09:19:51.595Z,14.50
2018-12-22T09:20:54.883Z,14.50
2018-12-22T09:21:58.123Z,14.50
2018-12-22T09:23:01.396Z,14.50
2018-12-22T09:24:04.705Z,14.50
2018-12-22T09:25:08.251Z,14.50
2018-12-22T09:26:11.494Z,14.50
2018-12-22T09:27:14.750Z,14.50
2018-12-22T09:28:17.992Z,14.50
2018-12-22T09:29:21.382Z,14.50
2018-12-22T09:30:24.698Z,14.50
2018-12-22T09:31:27.970Z,14.50
2018-12-22T09:32:31.218Z,14.50
2018-12-22T09:33:34.491Z,14.50
2018-12-22T09:34:37.766Z,14.50
2018-12-22T09:35:41.006Z,14.50
2018-12-22T09:36:44.269Z,14.60
2018-12-22T09:37:47.528Z,14.50
2018-12-22T09:38:50.882Z,14.60
2018-12-22T09:39:54.122Z,14.60
2018-12-22T09:40:57.352Z,14.60
2018-12-22T09:42:00.594Z,14.60
2018-12-22T09:43:03.861Z,14.60
2018-12-22T09:44:07.145Z,14.60
2018-12-22T09:45:10.373Z,14.60
2018-12-22T09:46:13.604Z,14.60
2018-12-22T09:47:16.836Z,14.60
2018-12-22T09:48:20.158Z,14.60
2018-12-22T09:49:23.493Z,14.60
2018-12-22T09:50:26.822Z,14.60
2018-12-22T09:51:30.084Z,14.60
2018-12-22T09:52:33.329Z,14.60
2018-12-22T09:53:36.574Z,14.60
2018-12-22T09:54:39.927Z,14.60
2018-12-22T09:55:43.183Z,14.60
2018-12-22T09:56:46.481Z,14.60
2018-12-22T09:57:49.733Z,14.60
2018-12-22T09:58:52.990Z,14.60
2018-12-22T09:59:56.247Z,14.60
2018-12-22T10:00:59.542Z,14.60
2018-12-22T10:02:03.141Z,14.60
2018-12-22T10:03:06.377Z,14.60
2018-12-22T10:04:09.610Z,14.60
2018-12-22T10:05:12.887Z,14.60
2018-12-22T10:06:16.137Z,14.60
2018-12-22T10:07:19.431Z,14.60
2018-12-22T10:08:22.629Z,14.60
2018-12-22T10:09:25.876Z,14.60
2018-12-22T10:10:29.127Z,14.60
2018-12-22T10:11:32.348Z,14.60
2018-12-22T10:12:35.601Z,14.60
2018-12-22T10:13:38.860Z,14.60
2018-12-22T10:14:42.180Z,14.60
2018-12-22T10:15:45.488Z,14.60
2018-12-22T10:16:48.770Z,14.60
2018-12-22T10:17:52.047Z,14.70
2018-12-22T10:18:55.332Z,14.70
2018-12-22T10:19:58.592Z,14.70
2018-12-22T10:21:01.858Z,14.70
2018-12-22T10:22:05.137Z,14.70
2018-12-22T10:23:08.429Z,14.70
2018-12-22T10:24:11.699Z,14.70
2018-12-22T10:25:14.929Z,14.80
2018-12-22T10:26:18.235Z,14.80
2018-12-22T10:27:22.526Z,14.80
2018-12-22T10:28:25.852Z,14.80
2018-12-22T10:29:29.166Z,14.80
2018-12-22T10:30:32.727Z,14.80
2018-12-22T10:31:36.074Z,14.80
2018-12-22T10:32:39.343Z,14.80
2018-12-22T10:33:42.561Z,14.80
2018-12-22T10:34:45.826Z,14.80
2018-12-22T10:35:49.132Z,14.90
2018-12-22T10:36:52.344Z,14.80
2018-12-22T10:37:55.590Z,14.80
2018-12-22T10:38:58.971Z,14.80
2018-12-22T10:40:03.185Z,14.80
2018-12-22T10:41:06.559Z,14.80
2018-12-22T10:42:09.829Z,14.80
2018-12-22T10:43:13.057Z,14.80
2018-12-22T10:44:16.319Z,14.80
2018-12-22T10:45:19.624Z,14.80
2018-12-22T10:46:23.706Z,14.80
2018-12-22T10:47:27.005Z,14.70
2018-12-22T10:48:30.200Z,14.70
2018-12-22T10:49:33.487Z,14.70
2018-12-22T10:50:36.720Z,14.70
2018-12-22T10:51:40.016Z,14.60
2018-12-22T10:52:43.244Z,14.60
2018-12-22T10:53:46.588Z,14.60
2018-12-22T10:54:49.896Z,14.60
2018-12-22T10:55:53.280Z,14.60
2018-12-22T10:56:56.528Z,14.50
2018-12-22T10:58:00.065Z,14.50
2018-12-22T10:59:03.416Z,14.50
2018-12-22T11:00:10.209Z,14.40
2018-12-22T11:01:13.576Z,14.40
2018-12-22T11:02:17.033Z,14.40
2018-12-22T11:03:20.290Z,14.40
2018-12-22T11:04:23.557Z,14.40
2018-12-22T11:05:26.858Z,14.40
2018-12-22T11:06:30.115Z,14.30
2018-12-22T11:07:33.342Z,14.30
2018-12-22T11:08:36.688Z,14.30
2018-12-22T11:09:39.941Z,14.30
2018-12-22T11:10:43.216Z,14.30
2018-12-22T11:11:46.484Z,14.30
2018-12-22T11:12:49.727Z,14.30
2018-12-22T11:13:53.055Z,14.20
2018-12-22T11:14:56.311Z,14.20
2018-12-22T11:15:59.550Z,14.20
2018-12-22T11:17:02.903Z,14.20
2018-12-22T11:18:06.361Z,14.20
2018-12-22T11:19:09.599Z,14.20
2018-12-22T11:20:12.824Z,14.20
2018-12-22T11:21:16.124Z,14.20
2018-12-22T11:22:19.406Z,14.20
2018-12-22T11:23:22.676Z,14.20
2018-12-22T11:24:26.040Z,14.20
2018-12-22T11:25:29.352Z,14.10
2018-12-22T11:26:32.586Z,14.10
2018-12-22T11:27:35.834Z,14.10
2018-12-22T11:28:39.070Z,14.10
2018-12-22T11:29:42.382Z,14.10
2018-12-22T11:30:45.659Z,14.10
2018-12-22T11:31:48.904Z,14.00
2018-12-22T11:32:52.291Z,14.00
2018-12-22T11:33:55.781Z,14.00
2018-12-22T11:34:59.068Z,14.00
2018-12-22T11:36:02.343Z,14.00
2018-12-22T11:37:05.621Z,13.90
2018-12-22T11:38:08.882Z,14.00
2018-12-22T11:39:12.165Z,14.00
2018-12-22T11:40:15.463Z,14.00
2018-12-22T11:41:18.808Z,14.00
2018-12-22T11:42:23.382Z,14.00
2018-12-22T11:43:26.908Z,14.00
2018-12-22T11:44:30.218Z,14.00
2018-12-22T11:45:33.504Z,14.00
2018-12-22T11:46:37.152Z,14.00
2018-12-22T11:47:42.871Z,13.90
2018-12-22T11:48:47.319Z,13.90
2018-12-22T11:49:50.566Z,13.90
2018-12-22T11:50:53.829Z,13.90
2018-12-22T11:51:57.076Z,13.90
2018-12-22T11:53:00.444Z,13.90
2018-12-22T11:54:03.699Z,13.90
2018-12-22T11:55:08.028Z,13.90
2018-12-22T11:56:11.245Z,13.80
2018-12-22T11:57:14.572Z,13.90
2018-12-22T11:58:18.471Z,13.80
2018-12-22T11:59:21.733Z,13.80
2018-12-22T12:00:24.990Z,13.80
2018-12-22T12:01:28.259Z,13.80
2018-12-22T12:02:31.606Z,13.80
2018-12-22T12:03:34.892Z,13.80
2018-12-22T12:04:38.172Z,13.80
2018-12-22T12:05:41.398Z,13.80
2018-12-22T12:06:44.645Z,13.80
2018-12-22T12:07:48.666Z,13.70
2018-12-22T12:08:52.385Z,13.70
2018-12-22T12:09:55.637Z,13.70
2018-12-22T12:11:00.480Z,13.70
2018-12-22T12:12:04.135Z,13.70
2018-12-22T12:13:07.376Z,13.70
2018-12-22T12:14:10.588Z,13.70
2018-12-22T12:15:16.919Z,13.70
2018-12-22T12:16:20.355Z,13.70
2018-12-22T12:17:32.059Z,13.80
2018-12-22T12:18:48.342Z,13.70
2018-12-22T12:19:51.713Z,13.70
2018-12-22T12:20:54.952Z,13.70
2018-12-22T12:21:58.285Z,13.80
2018-12-22T12:23:01.520Z,13.80
2018-12-22T12:24:04.876Z,13.80
2018-12-22T12:25:08.078Z,13.80
2018-12-22T12:26:11.349Z,13.80
2018-12-22T12:27:14.588Z,13.80
2018-12-22T12:28:17.878Z,13.80
2018-12-22T12:29:21.153Z,13.80
2018-12-22T12:30:24.396Z,13.80
2018-12-22T12:31:27.644Z,13.80
2018-12-22T12:32:30.878Z,13.80
2018-12-22T12:33:34.124Z,13.80
2018-12-22T12:34:37.382Z,13.80
2018-12-22T12:35:40.617Z,13.80
2018-12-22T12:36:43.881Z,13.90
2018-12-22T12:37:47.228Z,13.80
2018-12-22T12:38:50.519Z,13.90
2018-12-22T12:39:53.760Z,13.90
2018-12-22T12:40:57.013Z,13.90
2018-12-22T12:42:00.319Z,13.90
2018-12-22T12:43:03.569Z,13.90
2018-12-22T12:44:06.840Z,13.90
2018-12-22T12:45:12.908Z,13.90
2018-12-22T12:46:16.248Z,13.90
2018-12-22T12:47:19.515Z,13.90
2018-12-22T12:48:23.810Z,13.90
2018-12-22T12:49:27.107Z,13.90
2018-12-22T12:50:30.359Z,13.90
2018-12-22T12:51:33.717Z,13.90
2018-12-22T12:52:36.938Z,13.90
2018-12-22T12:53:40.176Z,14.00
2018-12-22T12:54:43.459Z,13.90
2018-12-22T12:55:46.739Z,13.90
2018-12-22T12:56:49.963Z,13.90
2018-12-22T12:57:53.264Z,13.90
2018-12-22T12:58:56.482Z,13.90
2018-12-22T12:59:59.730Z,13.90
2018-12-22T13:01:03.000Z,13.90
2018-12-22T13:02:06.291Z,13.90
2018-12-22T13:03:09.568Z,13.90
2018-12-22T13:04:12.822Z,13.90
2018-12-22T13:05:16.103Z,13.90
2018-12-22T13:06:19.341Z,13.90
2018-12-22T13:07:22.607Z,13.90
2018-12-22T13:08:25.874Z,13.90
2018-12-22T13:09:29.136Z,13.90
2018-12-22T13:10:32.497Z,13.90
2018-12-22T13:11:35.779Z,13.90
2018-12-22T13:14:16.138Z,13.90
2018-12-22T13:15:19.416Z,13.90
2018-12-22T13:16:22.760Z,13.90
2018-12-22T13:17:25.987Z,13.90
2018-12-22T13:18:29.233Z,13.90
2018-12-22T13:19:32.623Z,13.90
2018-12-22T13:20:36.024Z,13.80
2018-12-22T13:21:39.294Z,13.80
2018-12-22T13:22:42.940Z,13.80
2018-12-22T13:23:46.170Z,13.80
2018-12-22T13:24:49.412Z,13.80
2018-12-22T13:25:52.681Z,13.80
2018-12-22T13:26:56.607Z,13.90
2018-12-22T13:27:59.877Z,13.90
2018-12-22T13:29:03.183Z,13.90
2018-12-22T13:30:10.831Z,13.90
2018-12-22T13:31:15.264Z,13.90
2018-12-22T13:32:18.514Z,13.90
2018-12-22T13:33:21.835Z,13.90
2018-12-22T13:34:25.136Z,14.00
2018-12-22T13:35:28.400Z,14.00
2018-12-22T13:36:34.774Z,14.00
2018-12-22T13:37:36.934Z,14.00